General Aviation Weather

Text Reports

Enter one or more of the following location identifiers separated by a space:

Zip Code, Four-Character ICAO or Three-Character IATA airport codes.

METAR - Aviation Routine Weather Report
KORC - Orange City, Iowa
Updated at 12:15 PM GMT on July 30, 2014 (7:15 AM CDT):
METAR KORC 301215Z AUTO 00000KT 10SM CLR 14/11 A3016 RMK AO2
TAF - Terminal Area Forecast
KORC - Orange City, Iowa
Updated at 12:15 PM GMT on July 30, 2014 (7:15 AM CDT):
No TAF is currently available for this location.
Decoded:
No decoded TAF is available.
PIREP - Pilot Weather Report
KORC - Orange City, Iowa
Updated at 12:15 PM GMT on July 30, 2014 (7:15 AM CDT):
No PIREP is currently available for this location.
AIRMET - Airmens Meteorological Information
KORC - Orange City, Iowa
Updated at 12:15 PM GMT on July 30, 2014 (7:15 AM CDT):
No AIRMET is currently available for this location.
SIGMET - Significant Meteorological Information
KORC - Orange City, Iowa
Updated at 12:15 PM GMT on July 30, 2014 (7:15 AM CDT):
No SIGMET is currently available for this location.
NOTAM - Notice to Airmen
KORC - Orange City, Iowa
Updated at 12:15 PM GMT on July 30, 2014 (7:15 AM CDT):
No NOTAM is currently available for this location.
Forecast Area
KORC - Orange City, Iowa
Updated at 12:15 PM GMT on July 30, 2014 (7:15 AM CDT):
No NOTAM is currently available for this location.
Aviation Weather Maps